Terminal Aerodrome Forecast
Issued by NWS Mt. Holly, NJ

Home | Current Version | Previous Version | Text Only | Print | Product List | Glossary On
Versions: 1 2 3 4 5 6 7 8 9 10 11 12 13 14 15 16 17
000
FTUS41 KPHI 061429 AAA
TAFRDG
TAF AMD
KRDG 061429Z 0614/0712 04007KT P6SM SCT030 OVC080
      TEMPO 0615/0617 5SM SHRA
     FM061700 07006KT P6SM BKN040
     FM070100 VRB03KT P6SM BKN050=

USA.gov is the U.S. government's official web portal to all federal, state and local government web resources and services.